Airfield :
LOGIN :

Register | Disclaimer

   EN    FR    IT 

 










Legend :    VFR   Marginal VFR   IFR   Intensive IFR   Very Intensive IFR
Visi :
Ceiling :
>= 8 km
>= 3000ft
5 to 8 km
1000 to 3000 ft
1500m to 5 km
500 to 1000 ft
800 to 1500m
200 to 500 ft
< 800m
< 200 ft
Symbols :   Thunderstorms  Fog  Heavy snow  Heavy precipitations  Wind > 20 kt
SIGMETs :     Misc.  Thunderstorms  Icing  Turbulence  Mountain Waves  Volcanic Ashes






- Airport Elevation : 1682 ft
- IATA code : VIT


LEVT - Vitoria Gasteiz

CURRENT METAR :
  • 030730Z 03010KT 010V070 9999 SCT014 SCT018 17/14 Q1022

EXPIRED METARs :
  • 030700Z 02009KT 330V060 9999 SCT014 SCT018 17/14 Q1022
  • 030630Z 01008KT 340V050 9999 SCT014 SCT018 17/14 Q1022
  • 030600Z 02007KT 350V050 9999 SCT014 SCT018 16/14 Q1022
  • 030530Z 00000KT 9999 BKN016 14/14 Q1022
  • 030500Z 00000KT 9999 SCT016 13/12 Q1022

TAF TAF LEVT
Valid from the 03 at 06:00 until the 04 at 06:00 UTC


030500Z 0306/0406 02009KT 9999 FEW015 SCT030 TX24/0313Z TN11/0306Z
PROB30
TEMPO 0312/0317 02015G25KT
PROB40
TEMPO 0313/0319 3000 TSRA SCT050CB



MET'MAP, your aeronautical weather chart ! - Copyright ORBIFLY December 2007 - Disclaimer

ORBIFLY MET'MAP TEAM :

Programming & Development : Alexandra Zaïnal
Original concept : Baudouin d'Aumeries
Technical & hardware support : Manuel Goepfert
Assistance : Marc-Olivier Méhu




SOURCES & CREDITS :

   NOAA